createdAt,value
2018-02-21T00:00:12.433Z,102218.98
2018-02-21T00:02:38.648Z,102219.75
2018-02-21T00:05:04.793Z,102221.73
2018-02-21T00:07:30.988Z,102235.28
2018-02-21T00:09:57.250Z,102238.22
2018-02-21T00:12:23.475Z,102231.77
2018-02-21T00:14:49.692Z,102234.78
2018-02-21T00:17:15.866Z,102238.29
2018-02-21T00:19:42.093Z,102235.70
2018-02-21T00:22:08.284Z,102236.80
2018-02-21T00:24:34.468Z,102244.16
2018-02-21T00:27:00.681Z,102238.81
2018-02-21T00:29:26.867Z,102237.67
2018-02-21T00:31:53.004Z,102247.59
2018-02-21T00:34:19.230Z,102241.38
2018-02-21T00:36:45.413Z,102240.08
2018-02-21T00:39:11.635Z,102239.16
2018-02-21T00:41:37.876Z,102245.86
2018-02-21T00:44:04.060Z,102245.21
2018-02-21T00:46:30.275Z,102247.15
2018-02-21T00:48:56.399Z,102244.06
2018-02-21T00:51:22.636Z,102250.42
2018-02-21T00:53:48.820Z,102253.58
2018-02-21T00:56:14.995Z,102261.07
2018-02-21T00:58:41.180Z,102262.62
2018-02-21T01:01:07.392Z,102262.77
2018-02-21T01:03:33.549Z,102268.70
2018-02-21T01:05:59.737Z,102270.50
2018-02-21T01:08:25.918Z,102269.82
2018-02-21T01:10:52.182Z,102276.38
2018-02-21T01:13:18.328Z,102275.74
2018-02-21T01:15:44.489Z,102276.70
2018-02-21T01:18:10.696Z,102272.89
2018-02-21T01:20:36.889Z,102282.30
2018-02-21T01:23:03.041Z,102285.73
2018-02-21T01:25:29.254Z,102286.41
2018-02-21T01:27:55.446Z,102286.83
2018-02-21T01:30:21.724Z,102289.13
2018-02-21T01:32:47.871Z,102282.99
2018-02-21T01:35:14.053Z,102283.55
2018-02-21T01:37:40.245Z,102284.77
2018-02-21T01:40:06.456Z,102285.98
2018-02-21T01:42:32.646Z,102286.43
2018-02-21T01:44:58.883Z,102279.05
2018-02-21T01:47:25.065Z,102269.47
2018-02-21T01:49:51.353Z,102279.88
2018-02-21T01:52:17.480Z,102285.31
2018-02-21T01:54:43.814Z,102280.38
2018-02-21T01:57:10.018Z,102285.33
2018-02-21T01:59:36.214Z,102283.33
2018-02-21T02:02:02.452Z,102286.12
2018-02-21T02:04:28.692Z,102282.33
2018-02-21T02:06:54.835Z,102287.84
2018-02-21T02:09:21.083Z,102283.71
2018-02-21T02:11:47.301Z,102284.75
2018-02-21T02:14:13.479Z,102280.91
2018-02-21T02:16:39.661Z,102285.25
2018-02-21T02:19:05.827Z,102289.81
2018-02-21T02:21:32.048Z,102288.93
2018-02-21T02:23:58.203Z,102295.28
2018-02-21T02:26:24.398Z,102296.11
2018-02-21T02:28:50.582Z,102297.08
2018-02-21T02:31:16.805Z,102297.54
2018-02-21T02:33:42.983Z,102292.23
2018-02-21T02:36:09.234Z,102301.09
2018-02-21T02:38:40.188Z,102298.29
2018-02-21T02:41:06.453Z,102294.32
2018-02-21T02:43:32.670Z,102295.58
2018-02-21T02:45:58.859Z,102303.80
2018-02-21T02:48:25.042Z,102300.30
2018-02-21T02:50:51.348Z,102301.96
2018-02-21T02:53:17.507Z,102306.98
2018-02-21T02:55:43.693Z,102305.30
2018-02-21T02:58:09.909Z,102312.73
2018-02-21T03:00:36.126Z,102310.78
2018-02-21T03:03:02.347Z,102312.31
2018-02-21T03:05:28.604Z,102317.54
2018-02-21T03:07:54.816Z,102318.45
2018-02-21T03:10:21.021Z,102314.64
2018-02-21T03:12:47.240Z,102321.73
2018-02-21T03:15:13.408Z,102311.05
2018-02-21T03:17:39.593Z,102316.92
2018-02-21T03:20:05.833Z,102322.27
2018-02-21T03:22:32.017Z,102323.97
2018-02-21T03:24:58.153Z,102321.72
2018-02-21T03:27:24.349Z,102321.95
2018-02-21T03:29:50.546Z,102334.98
2018-02-21T03:32:21.635Z,102337.06
2018-02-21T03:34:47.901Z,102334.30
2018-02-21T03:37:14.077Z,102336.76
2018-02-21T03:39:40.275Z,102340.51
2018-02-21T03:42:06.485Z,102340.84
2018-02-21T03:44:32.689Z,102347.27
2018-02-21T03:46:58.866Z,102345.34
2018-02-21T03:49:25.098Z,102344.84
2018-02-21T03:51:51.325Z,102343.41
2018-02-21T03:54:17.503Z,102342.16
2018-02-21T03:56:43.705Z,102340.03
2018-02-21T03:59:09.878Z,102345.25
2018-02-21T04:01:36.221Z,102349.97
2018-02-21T04:04:02.455Z,102339.24
2018-02-21T04:06:28.722Z,102342.97
2018-02-21T04:08:54.887Z,102343.66
2018-02-21T04:11:21.178Z,102345.68
2018-02-21T04:16:26.953Z,102347.17
2018-02-21T04:18:53.467Z,102345.44
2018-02-21T04:21:19.752Z,102348.91
2018-02-21T04:23:49.199Z,102345.53
2018-02-21T04:26:15.378Z,102348.58
2018-02-21T04:31:55.303Z,102344.86
2018-02-21T04:34:21.634Z,102329.81
2018-02-21T04:37:07.843Z,102338.72
2018-02-21T04:39:34.095Z,102341.69
2018-02-21T04:42:00.312Z,102336.62
2018-02-21T04:44:26.506Z,102339.13
2018-02-21T04:46:52.700Z,102339.05
2018-02-21T04:49:18.959Z,102341.72
2018-02-21T04:51:45.181Z,102349.88
2018-02-21T04:54:12.428Z,102347.98
2018-02-21T04:56:44.636Z,102353.25
2018-02-21T04:59:25.812Z,102350.95
2018-02-21T05:01:52.098Z,102347.11
2018-02-21T05:04:18.587Z,102352.63
2018-02-21T05:06:44.786Z,102350.66
2018-02-21T05:09:10.956Z,102347.52
2018-02-21T05:11:37.182Z,102343.80
2018-02-21T05:14:03.459Z,102344.23
2018-02-21T05:16:29.602Z,102347.28
2018-02-21T05:18:55.791Z,102350.45
2018-02-21T05:21:22.019Z,102354.75
2018-02-21T05:23:48.423Z,102362.52
2018-02-21T05:26:14.551Z,102356.76
2018-02-21T05:28:40.765Z,102359.77
2018-02-21T05:31:07.059Z,102358.39
2018-02-21T05:33:33.252Z,102363.23
2018-02-21T05:35:59.525Z,102366.66
2018-02-21T05:38:25.680Z,102364.98
2018-02-21T05:40:51.927Z,102367.95
2018-02-21T05:43:18.158Z,102365.73
2018-02-21T05:45:44.299Z,102366.83
2018-02-21T05:48:10.499Z,102367.66
2018-02-21T05:50:36.735Z,102375.14
2018-02-21T05:53:02.990Z,102368.75
2018-02-21T05:55:29.167Z,102372.87
2018-02-21T05:57:55.387Z,102370.33
2018-02-21T06:00:21.579Z,102378.73
2018-02-21T06:02:47.827Z,102382.48
2018-02-21T06:05:14.059Z,102372.45
2018-02-21T06:07:40.256Z,102366.48
2018-02-21T06:10:06.443Z,102372.78
2018-02-21T06:12:32.670Z,102363.55
2018-02-21T06:14:58.849Z,102366.34
2018-02-21T06:17:25.158Z,102368.18
2018-02-21T06:19:51.356Z,102371.31
2018-02-21T06:22:17.565Z,102372.77
2018-02-21T06:24:43.756Z,102374.34
2018-02-21T06:27:09.965Z,102373.76
2018-02-21T06:29:36.281Z,102369.33
2018-02-21T06:32:02.541Z,102379.75
2018-02-21T06:34:28.771Z,102380.45
2018-02-21T06:36:54.947Z,102376.77
2018-02-21T06:39:21.181Z,102381.64
2018-02-21T06:41:47.494Z,102375.20
2018-02-21T06:44:13.725Z,102384.23
2018-02-21T06:46:39.901Z,102379.63
2018-02-21T06:49:06.158Z,102376.34
2018-02-21T06:51:32.352Z,102385.91
2018-02-21T06:53:58.540Z,102381.22
2018-02-21T06:56:24.762Z,102383.95
2018-02-21T06:58:50.939Z,102385.48
2018-02-21T07:01:17.165Z,102386.07
2018-02-21T07:03:43.369Z,102384.59
2018-02-21T07:06:09.589Z,102389.22
2018-02-21T07:08:35.876Z,102390.52
2018-02-21T07:11:02.099Z,102391.63
2018-02-21T07:13:28.299Z,102398.84
2018-02-21T07:15:54.547Z,102392.33
2018-02-21T07:18:20.716Z,102397.03
2018-02-21T07:20:46.897Z,102398.97
2018-02-21T07:23:13.073Z,102398.69
2018-02-21T07:25:39.214Z,102395.89
2018-02-21T07:28:05.372Z,102393.47
2018-02-21T07:30:31.621Z,102398.03
2018-02-21T07:32:57.850Z,102397.47
2018-02-21T07:35:24.075Z,102393.44
2018-02-21T07:37:50.449Z,102395.87
2018-02-21T07:40:16.597Z,102400.16
2018-02-21T07:42:42.785Z,102403.92
2018-02-21T07:45:09.036Z,102400.72
2018-02-21T07:47:35.285Z,102408.45
2018-02-21T07:50:01.479Z,102407.92
2018-02-21T07:52:27.705Z,102409.41
2018-02-21T07:54:54.001Z,102414.89
2018-02-21T07:57:20.172Z,102414.27
2018-02-21T07:59:46.352Z,102412.44
2018-02-21T08:02:12.612Z,102416.59
2018-02-21T08:04:38.897Z,102417.80
2018-02-21T08:07:05.081Z,102422.20
2018-02-21T08:09:31.238Z,102422.32
2018-02-21T08:11:57.715Z,102423.61
2018-02-21T08:14:23.908Z,102424.53
2018-02-21T08:16:50.982Z,102438.62
2018-02-21T08:19:17.141Z,102435.98
2018-02-21T08:21:43.372Z,102439.73
2018-02-21T08:24:09.559Z,102441.52
2018-02-21T08:26:35.759Z,102440.34
2018-02-21T08:29:01.941Z,102439.98
2018-02-21T08:31:28.123Z,102442.36
2018-02-21T08:33:54.288Z,102439.03
2018-02-21T08:36:20.494Z,102448.85
2018-02-21T08:38:46.648Z,102438.53
2018-02-21T08:41:12.830Z,102448.66
2018-02-21T08:43:39.086Z,102455.62
2018-02-21T08:46:05.244Z,102463.59
2018-02-21T08:48:31.416Z,102462.62
2018-02-21T08:50:57.601Z,102453.89
2018-02-21T08:53:23.823Z,102448.27
2018-02-21T08:55:49.979Z,102451.28
2018-02-21T08:58:16.131Z,102450.36
2018-02-21T09:00:42.483Z,102445.42
2018-02-21T09:03:08.695Z,102446.12
2018-02-21T09:05:34.875Z,102442.81
2018-02-21T09:08:01.146Z,102449.32
2018-02-21T09:10:27.372Z,102452.12
2018-02-21T09:12:53.563Z,102446.10
2018-02-21T09:15:19.902Z,102452.69
2018-02-21T09:17:46.055Z,102461.53
2018-02-21T09:20:12.239Z,102466.74
2018-02-21T09:22:38.524Z,102465.52
2018-02-21T09:25:04.766Z,102461.33
2018-02-21T09:27:30.894Z,102465.91
2018-02-21T09:29:57.005Z,102460.28
2018-02-21T09:32:23.183Z,102461.05
2018-02-21T09:34:49.346Z,102463.61
2018-02-21T09:37:15.463Z,102461.51
2018-02-21T09:39:41.633Z,102465.93
2018-02-21T09:42:07.787Z,102465.98
2018-02-21T09:44:33.888Z,102465.52
2018-02-21T09:47:00.020Z,102459.30
2018-02-21T09:49:26.152Z,102460.44
2018-02-21T09:51:52.330Z,102469.08
2018-02-21T09:54:18.466Z,102467.03
2018-02-21T09:56:44.613Z,102468.77
2018-02-21T09:59:10.748Z,102465.30
2018-02-21T10:01:36.862Z,102468.34
2018-02-21T10:04:03.063Z,102467.01
2018-02-21T10:06:29.235Z,102469.67
2018-02-21T10:08:55.343Z,102471.06
2018-02-21T10:11:21.604Z,102465.61
2018-02-21T10:13:47.799Z,102467.48
2018-02-21T10:16:13.953Z,102461.75
2018-02-21T10:18:40.082Z,102468.50
2018-02-21T10:21:06.285Z,102465.63
2018-02-21T10:23:32.487Z,102466.91
2018-02-21T10:25:58.782Z,102460.42
2018-02-21T10:28:24.996Z,102471.39
2018-02-21T10:30:51.194Z,102463.05
2018-02-21T10:33:17.416Z,102465.95
2018-02-21T10:35:43.642Z,102469.41
2018-02-21T10:38:09.872Z,102471.82
2018-02-21T10:40:36.101Z,102466.09
2018-02-21T10:43:02.355Z,102464.08
2018-02-21T10:45:28.520Z,102468.02
2018-02-21T10:47:54.794Z,102469.84
2018-02-21T10:50:20.989Z,102454.59
2018-02-21T10:52:47.155Z,102468.50
2018-02-21T10:55:13.317Z,102468.30
2018-02-21T10:57:39.542Z,102470.74
2018-02-21T11:00:05.701Z,102471.66
2018-02-21T11:02:31.842Z,102470.64
2018-02-21T11:04:58.081Z,102471.10
2018-02-21T11:07:24.253Z,102471.91
2018-02-21T11:09:50.430Z,102466.55
2018-02-21T11:12:16.606Z,102475.89
2018-02-21T11:14:42.789Z,102468.62
2018-02-21T11:17:09.000Z,102471.98
2018-02-21T11:19:35.196Z,102471.88
2018-02-21T11:22:01.455Z,102467.00
2018-02-21T11:24:27.673Z,102462.66
2018-02-21T11:26:53.920Z,102463.98
2018-02-21T11:29:20.147Z,102462.22
2018-02-21T11:31:46.351Z,102454.44
2018-02-21T11:34:12.558Z,102461.05
2018-02-21T11:36:38.759Z,102452.71
2018-02-21T11:39:04.997Z,102454.00
2018-02-21T11:41:31.218Z,102448.27
2018-02-21T11:43:57.368Z,102453.08
2018-02-21T11:46:23.554Z,102449.37
2018-02-21T11:48:49.702Z,102453.58
2018-02-21T11:51:15.889Z,102446.44
2018-02-21T11:53:42.095Z,102443.16
2018-02-21T11:56:08.280Z,102442.19
2018-02-21T11:58:34.548Z,102440.01
2018-02-21T12:01:00.688Z,102439.64
2018-02-21T12:03:26.834Z,102435.16
2018-02-21T12:05:53.018Z,102439.38
2018-02-21T12:08:19.222Z,102434.10
2018-02-21T12:10:45.415Z,102431.06
2018-02-21T12:13:11.611Z,102420.81
2018-02-21T12:15:37.826Z,102424.75
2018-02-21T12:18:04.018Z,102418.54
2018-02-21T12:20:30.405Z,102421.52
2018-02-21T12:22:56.605Z,102416.66
2018-02-21T12:25:22.770Z,102417.48
2018-02-21T12:27:49.015Z,102412.63
2018-02-21T12:30:15.281Z,102413.84
2018-02-21T12:32:43.283Z,102404.22
2018-02-21T12:35:09.540Z,102412.34
2018-02-21T12:37:35.791Z,102407.28
2018-02-21T12:40:02.005Z,102395.61
2018-02-21T12:42:28.208Z,102404.73
2018-02-21T12:44:54.380Z,102401.67
2018-02-21T12:47:20.575Z,102401.67
2018-02-21T12:49:46.801Z,102402.06
2018-02-21T12:52:13.006Z,102391.72
2018-02-21T12:54:39.201Z,102394.56
2018-02-21T12:57:05.441Z,102393.07
2018-02-21T12:59:31.599Z,102392.77
2018-02-21T13:01:57.745Z,102394.48
2018-02-21T13:04:23.963Z,102394.09
2018-02-21T13:06:50.355Z,102389.30
2018-02-21T13:09:16.631Z,102387.34
2018-02-21T13:11:42.806Z,102378.02
2018-02-21T13:14:08.983Z,102385.73
2018-02-21T13:16:35.164Z,102379.95
2018-02-21T13:19:01.387Z,102378.10
2018-02-21T13:21:27.601Z,102377.53
2018-02-21T13:23:53.798Z,102374.38
2018-02-21T13:26:20.010Z,102370.27
2018-02-21T13:28:46.232Z,102368.03
2018-02-21T13:31:12.562Z,102372.26
2018-02-21T13:33:38.764Z,102366.55
2018-02-21T13:36:05.032Z,102368.11
2018-02-21T13:38:31.326Z,102360.91
2018-02-21T13:40:57.480Z,102355.37
2018-02-21T13:43:23.994Z,102355.39
2018-02-21T13:45:50.149Z,102350.20
2018-02-21T13:48:16.389Z,102341.84
2018-02-21T13:50:42.643Z,102334.20
2018-02-21T13:53:08.852Z,102322.41
2018-02-21T13:55:35.038Z,102318.33
2018-02-21T13:58:01.222Z,102316.37
2018-02-21T14:00:27.420Z,102308.59
2018-02-21T14:02:53.648Z,102303.70
2018-02-21T14:05:19.894Z,102298.95
2018-02-21T14:07:46.106Z,102290.36
2018-02-21T14:10:12.289Z,102288.83
2018-02-21T14:12:38.434Z,102285.91
2018-02-21T14:15:04.587Z,102281.56
2018-02-21T14:17:30.804Z,102287.27
2018-02-21T14:19:57.068Z,102286.65
2018-02-21T14:22:23.215Z,102288.34
2018-02-21T14:24:49.373Z,102280.56
2018-02-21T14:27:15.638Z,102273.38
2018-02-21T14:29:41.884Z,102271.88
2018-02-21T14:32:08.056Z,102270.38
2018-02-21T14:34:34.277Z,102276.23
2018-02-21T14:37:00.734Z,102268.56
2018-02-21T14:39:26.964Z,102276.24
2018-02-21T14:41:53.192Z,102273.53
2018-02-21T14:44:19.371Z,102273.28
2018-02-21T14:46:45.547Z,102261.94
2018-02-21T14:49:11.775Z,102270.91
2018-02-21T14:51:37.943Z,102271.50
2018-02-21T14:54:04.106Z,102268.36
2018-02-21T14:56:30.387Z,102270.64
2018-02-21T14:58:56.610Z,102273.89
2018-02-21T15:01:22.780Z,102266.36
2018-02-21T15:03:48.956Z,102264.04
2018-02-21T15:06:15.183Z,102260.30
2018-02-21T15:08:41.395Z,102266.41
2018-02-21T15:11:07.540Z,102259.59
2018-02-21T15:13:33.747Z,102250.70
2018-02-21T15:15:59.964Z,102253.56
2018-02-21T15:18:26.215Z,102253.47
2018-02-21T15:20:52.362Z,102255.59
2018-02-21T15:23:18.557Z,102246.02
2018-02-21T15:25:44.741Z,102254.74
2018-02-21T15:28:11.011Z,102256.07
2018-02-21T15:30:37.164Z,102248.64
2018-02-21T15:33:03.401Z,102242.52
2018-02-21T15:35:29.656Z,102244.48
2018-02-21T15:37:55.870Z,102245.58
2018-02-21T15:40:22.051Z,102241.05
2018-02-21T15:42:48.293Z,102244.19
2018-02-21T15:45:14.475Z,102246.41
2018-02-21T15:47:40.756Z,102241.03
2018-02-21T15:50:06.969Z,102250.45
2018-02-21T15:52:33.158Z,102248.11
2018-02-21T15:54:59.411Z,102259.45
2018-02-21T15:57:25.646Z,102251.09
2018-02-21T15:59:51.821Z,102252.52
2018-02-21T16:02:17.984Z,102251.69
2018-02-21T16:04:44.174Z,102250.81
2018-02-21T16:07:10.332Z,102255.64
2018-02-21T16:09:36.576Z,102257.31
2018-02-21T16:12:02.815Z,102251.98
2018-02-21T16:14:28.930Z,102256.03
2018-02-21T16:16:55.069Z,102257.59
2018-02-21T16:19:21.242Z,102261.81
2018-02-21T16:21:47.497Z,102261.75
2018-02-21T16:24:13.638Z,102260.22
2018-02-21T16:26:40.649Z,102257.78
2018-02-21T16:29:06.849Z,102258.94
2018-02-21T16:31:33.031Z,102250.86
2018-02-21T16:33:59.197Z,102251.73
2018-02-21T16:36:25.429Z,102243.72
2018-02-21T16:38:51.617Z,102255.58
2018-02-21T16:41:17.824Z,102256.38
2018-02-21T16:43:44.041Z,102258.34
2018-02-21T16:46:10.233Z,102259.73
2018-02-21T16:48:36.586Z,102253.16
2018-02-21T16:51:02.753Z,102257.61
2018-02-21T16:53:28.906Z,102252.20
2018-02-21T16:55:55.096Z,102252.14
2018-02-21T16:58:21.514Z,102255.16
2018-02-21T17:00:47.828Z,102258.91
2018-02-21T17:03:14.003Z,102255.75
2018-02-21T17:05:40.258Z,102270.30
2018-02-21T17:08:06.532Z,102263.41
2018-02-21T17:10:32.710Z,102265.84
2018-02-21T17:12:58.879Z,102263.83
2018-02-21T17:15:25.078Z,102275.83
2018-02-21T17:17:51.488Z,102275.47
2018-02-21T17:20:17.709Z,102275.20
2018-02-21T17:22:43.959Z,102272.27
2018-02-21T17:25:10.148Z,102276.70
2018-02-21T17:27:36.339Z,102273.66
2018-02-21T17:30:02.591Z,102281.75
2018-02-21T17:32:28.812Z,102273.39
2018-02-21T17:34:55.058Z,102276.92
2018-02-21T17:37:21.274Z,102278.78
2018-02-21T17:39:47.655Z,102289.16
2018-02-21T17:42:13.823Z,102282.38
2018-02-21T17:44:40.044Z,102290.80
2018-02-21T17:47:06.288Z,102284.34
2018-02-21T17:49:32.562Z,102283.11
2018-02-21T17:51:58.761Z,102288.47
2018-02-21T17:54:24.974Z,102282.19
2018-02-21T17:56:51.186Z,102289.23
2018-02-21T17:59:17.424Z,102290.42
2018-02-21T18:01:43.839Z,102291.57
2018-02-21T18:04:10.066Z,102294.84
2018-02-21T18:06:36.399Z,102302.95
2018-02-21T18:09:02.750Z,102311.75
2018-02-21T18:11:28.990Z,102300.09
2018-02-21T18:13:55.149Z,102300.00
2018-02-21T18:16:21.350Z,102299.41
2018-02-21T18:18:47.548Z,102306.18
2018-02-21T18:21:19.783Z,102302.45
2018-02-21T18:23:45.981Z,102312.31
2018-02-21T18:26:12.182Z,102306.46
2018-02-21T18:28:38.503Z,102301.96
2018-02-21T18:31:04.760Z,102295.69
2018-02-21T18:33:30.977Z,102300.60
2018-02-21T18:35:57.211Z,102302.38
2018-02-21T18:38:23.434Z,102291.72
2018-02-21T18:40:49.670Z,102298.72
2018-02-21T18:43:15.908Z,102295.59
2018-02-21T18:45:42.092Z,102293.70
2018-02-21T18:48:08.355Z,102287.86
2018-02-21T18:50:34.568Z,102295.54
2018-02-21T18:53:00.755Z,102296.07
2018-02-21T18:55:26.963Z,102297.94
2018-02-21T18:57:53.133Z,102294.84
2018-02-21T19:00:19.596Z,102296.73
2018-02-21T19:02:45.814Z,102297.45
2018-02-21T19:05:12.077Z,102297.15
2018-02-21T19:07:38.281Z,102290.20
2018-02-21T19:10:04.509Z,102295.02
2018-02-21T19:12:30.689Z,102292.19
2018-02-21T19:14:56.874Z,102290.09
2018-02-21T19:17:23.122Z,102294.30
2018-02-21T19:19:49.330Z,102291.66
2018-02-21T19:22:15.545Z,102287.62
2018-02-21T19:24:41.763Z,102287.32
2018-02-21T19:27:08.001Z,102285.30
2018-02-21T19:29:34.277Z,102293.25
2018-02-21T19:32:00.496Z,102291.84
2018-02-21T19:34:26.779Z,102294.09
2018-02-21T19:36:53.006Z,102290.27
2018-02-21T19:39:19.347Z,102291.69
2018-02-21T19:41:45.563Z,102300.70
2018-02-21T19:44:11.789Z,102296.31
2018-02-21T19:46:37.995Z,102303.48
2018-02-21T19:49:04.294Z,102302.22
2018-02-21T19:51:30.465Z,102299.70
2018-02-21T19:53:56.687Z,102296.77
2018-02-21T19:56:22.901Z,102300.31
2018-02-21T19:58:49.141Z,102299.89
2018-02-21T20:01:15.299Z,102300.23
2018-02-21T20:03:41.456Z,102301.38
2018-02-21T20:06:07.692Z,102302.11
2018-02-21T20:08:33.878Z,102311.42
2018-02-21T20:11:00.070Z,102308.70
2018-02-21T20:13:26.286Z,102308.28
2018-02-21T20:15:52.477Z,102305.84
2018-02-21T20:18:18.645Z,102305.65
2018-02-21T20:20:44.879Z,102306.95
2018-02-21T20:23:11.032Z,102308.13
2018-02-21T20:25:37.177Z,102305.42
2018-02-21T20:28:03.385Z,102312.02
2018-02-21T20:30:29.610Z,102316.83
2018-02-21T20:32:55.788Z,102304.92
2018-02-21T20:35:21.998Z,102312.67
2018-02-21T20:37:48.182Z,102316.64
2018-02-21T20:40:14.371Z,102314.92
2018-02-21T20:42:40.515Z,102318.89
2018-02-21T20:45:06.652Z,102313.97
2018-02-21T20:47:32.801Z,102316.02
2018-02-21T20:49:58.998Z,102316.62
2018-02-21T20:52:25.308Z,102319.48
2018-02-21T20:54:51.419Z,102317.66
2018-02-21T20:57:17.535Z,102317.61
2018-02-21T20:59:43.703Z,102320.75
2018-02-21T21:02:09.821Z,102317.00
2018-02-21T21:04:36.013Z,102320.02
2018-02-21T21:07:02.142Z,102314.56
2018-02-21T21:09:28.334Z,102312.89
2018-02-21T21:11:54.473Z,102314.83
2018-02-21T21:14:20.593Z,102311.20
2018-02-21T21:16:46.732Z,102314.05
2018-02-21T21:19:12.948Z,102309.13
2018-02-21T21:21:39.242Z,102315.38
2018-02-21T21:24:05.347Z,102315.59
2018-02-21T21:26:31.528Z,102316.35
2018-02-21T21:28:57.686Z,102311.84
2018-02-21T21:31:23.856Z,102314.58
2018-02-21T21:33:50.071Z,102315.75
2018-02-21T21:36:16.239Z,102309.49
2018-02-21T21:38:42.359Z,102319.36
2018-02-21T21:41:08.533Z,102312.77
2018-02-21T21:43:34.673Z,102315.19
2018-02-21T21:46:00.804Z,102313.70
2018-02-21T21:48:26.980Z,102313.70
2018-02-21T21:50:53.162Z,102308.81
2018-02-21T21:53:19.378Z,102310.56
2018-02-21T21:55:45.569Z,102301.17
2018-02-21T21:58:11.793Z,102303.06
2018-02-21T22:00:39.154Z,102302.36
2018-02-21T22:03:05.389Z,102297.30
2018-02-21T22:05:31.578Z,102296.60
2018-02-21T22:07:57.763Z,102293.43
2018-02-21T22:10:23.877Z,102296.28
2018-02-21T22:12:50.092Z,102286.63
2018-02-21T22:15:16.280Z,102286.33
2018-02-21T22:17:42.450Z,102284.12
2018-02-21T22:20:08.656Z,102287.80
2018-02-21T22:22:34.797Z,102282.50
2018-02-21T22:25:01.346Z,102283.09
2018-02-21T22:27:27.522Z,102278.95
2018-02-21T22:29:53.724Z,102280.46
2018-02-21T22:32:19.930Z,102276.11
2018-02-21T22:34:46.165Z,102281.17
2018-02-21T22:37:12.410Z,102281.80
2018-02-21T22:39:38.596Z,102279.38
2018-02-21T22:42:04.761Z,102281.00
2018-02-21T22:44:30.977Z,102283.42
2018-02-21T22:46:57.150Z,102279.62
2018-02-21T22:49:23.352Z,102282.72
2018-02-21T22:51:49.512Z,102287.30
2018-02-21T22:54:15.650Z,102275.99
2018-02-21T22:56:41.842Z,102275.99
2018-02-21T22:59:08.012Z,102271.40
2018-02-21T23:01:34.229Z,102268.18
2018-02-21T23:04:00.384Z,102268.42
2018-02-21T23:06:26.581Z,102266.55
2018-02-21T23:08:52.753Z,102263.30
2018-02-21T23:11:18.964Z,102266.26
2018-02-21T23:13:45.103Z,102264.41
2018-02-21T23:16:11.259Z,102270.77
2018-02-21T23:18:37.443Z,102269.38
2018-02-21T23:21:03.654Z,102267.50
2018-02-21T23:23:29.779Z,102270.08
2018-02-21T23:25:56.043Z,102269.54
2018-02-21T23:28:22.204Z,102269.96
2018-02-21T23:30:48.412Z,102267.87
2018-02-21T23:33:14.561Z,102272.16
2018-02-21T23:35:40.772Z,102271.03
2018-02-21T23:38:06.966Z,102274.29
2018-02-21T23:40:33.231Z,102268.23
2018-02-21T23:42:59.453Z,102268.95
2018-02-21T23:45:25.620Z,102269.18
2018-02-21T23:47:51.818Z,102266.19
2018-02-21T23:50:18.024Z,102264.34
2018-02-21T23:52:44.211Z,102262.55
2018-02-21T23:55:10.443Z,102263.42
2018-02-21T23:57:36.659Z,102261.63
